Gozareh, Afghanistan

5:47 AM AFT on July 24, 2014 (GMT +0430)
Herat (OAHR) Elev 3163 ft | 34.21 °N, 62.23 °E | Change Station

Current weather conditions updated 22 minutes ago

Clear
Clear
79 °F
Feels Like 79 °F
N
10
Wind Variable Wind from North
Gusts mph

Today is forecast to be Cooler than yesterday.

Today
High -- | Low -- °F
--% Chance of Precip.
Yesterday
High -- | Low -- °F
Precip. -- in
5:26 AM 7:28 PM
Waning Crescent, 8% visible
Pressure 29.83 in
Visibility 6.2 miles
Clouds
Dew Point 39 °F
Humidity 24%
Rainfall 0.00 in
Snow Depth Not available.
UV Not available.
Pollen Not available.
Air Quality Not available.
Flu Activity Not available.
METAR OAHR 240055Z AUTO 36009KT 320V050 9999 VV/// 26/04 Q1010

More Conditions Fewer Conditions

Pressure 29.83 in
Visibility 6.2 miles
Clouds
Dew Point 39 °F
Humidity 24%
Rainfall 0.00 in
Snow Depth Not available.
UV Not available.
Pollen Not available.
Air Quality Not available.
Flu Activity Not available.
METAR OAHR 240055Z AUTO 36009KT 320V050 9999 VV/// 26/04 Q1010

More Conditions Fewer Conditions

10-Day Weather Forecast

Almanac

Astronomy

Jul. 24, 2014 Rise Set
Actual Time 5:26 AM AFT 7:28 PM AFT
Civil Twilight 4:58 AM AFT 7:56 PM AFT
Nautical Twilight 4:23 AM AFT 8:30 PM AFT
Astronomical Twilight 3:47 AM AFT 9:07 PM AFT
Moon 3:12 AM AFT 5:25 PM AFT
Length of Visible Light 14h 58m
Length of Day
14h 02m
Tomorrow will be 1m 22s shorter.
Waning Crescent, 8% of the Moon is Illuminated
Jul 23
Waning Crescent
Jul 26
New
Aug 3
First Quarter
Aug 10
Full
Aug 17
Last Quarter

Yesterday's Extremes

Country Highs Country Lows

Community

WunderPhotos

Upload Photos

1,736,840 photos uploaded!

Nearby

Snow Depth

Not available.

Earthquake Activity

City Distance Mag. Time & Date
No recent earthquake activity has been reported nearby.
Minimum magnitude displayed is 2.5.

Coastal Water Temperatures

Place Temperature
No Stations Reporting

Nearby Weather Stations

There are no personal weather stations in this area.